Latest Weather Observations for Liawenee

IDT60801

Issued at 6:02 pm EST Friday 30 September 2016 (issued every 30 minutes, with the page automatically refreshed every 10 minutes)

About weather observations | Map of weather stations | Latest weather observations for TAS | Other Formats
Station Details ID: 096033 Name: LIAWENEE Lat: -41.90 Lon: 146.67 Height: 1057.0 m
Data from the previous 72 hours. | See also: Recent months at Liawenee
Date/Time
EST
Temp
°C
App
Temp
°C
Dew
Point
°C
Rel
Hum
%
Delta-T
°C
Wind Press
QNH
hPa
Press
MSL
hPa
Rain since
9am
mm
Dir  Spd
km/h
Gust
km/h
Spd
kts
Gust
kts
30/06:00pm 1.8 -2.8 1.7 99 0.0 N 15 24 8 13 989.6 990.2 16.4
30/05:30pm 1.6 -3.4 1.5 99 0.0 NNW 17 30 9 16 989.1 989.8 15.6
30/05:00pm 1.8 -2.8 1.7 99 0.0 NNW 15 26 8 14 988.7 989.3 15.0
30/04:30pm 1.3 -3.7 1.2 99 0.0 NNW 17 22 9 12 988.5 989.1 13.8
30/04:00pm 1.9 -2.3 1.8 99 0.0 NNW 13 20 7 11 988.4 989.0 11.4
30/03:30pm 1.9 -2.3 1.8 99 0.0 NNW 13 20 7 11 988.3 988.9 10.6
30/03:00pm 1.5 -2.7 1.4 99 0.0 NNW 13 22 7 12 988.1 988.7 9.4
30/02:30pm 1.9 -3.4 1.8 99 0.0 NW 19 30 10 16 988.0 988.6 7.2
30/02:00pm 2.4 -1.7 2.3 99 0.0 NNW 13 24 7 13 987.9 988.5 6.6
30/01:30pm 2.4 -1.7 2.3 99 0.0 NW 13 24 7 13 988.1 988.7 6.2
30/01:00pm 2.7 -1.7 2.7 100 0.0 NNW 15 24 8 13 988.0 988.6 5.8
30/12:30pm 2.8 -2.0 2.7 99 0.0 WNW 17 26 9 14 987.8 988.4 4.4
30/12:00pm 3.0 -2.1 2.9 99 0.0 WNW 19 28 10 15 987.9 988.5 4.2
30/11:30am 2.5 -2.9 2.4 99 0.0 WNW 20 28 11 15 988.0 988.6 4.0
30/11:00am 1.7 -3.8 1.7 100 0.0 W 20 28 11 15 988.3 988.9 3.2
30/10:30am 1.7 -4.6 1.6 99 0.0 WNW 24 33 13 18 988.5 989.1 2.0
30/10:00am 2.4 -3.0 2.4 100 0.0 W 20 28 11 15 988.6 989.2 1.6
30/09:30am 2.3 -3.1 2.3 100 0.0 W 20 26 11 14 988.9 989.5 1.2
30/09:00am 2.5 -2.7 2.5 100 0.0 W 19 24 10 13 989.3 989.9 46.4
30/08:30am 2.9 -2.2 2.9 100 0.0 WSW 19 22 10 12 989.6 990.2 44.6
30/08:00am 3.6 -1.0 3.6 100 0.0 SW 17 22 9 12 989.6 990.2 43.4
30/07:30am 3.7 0.6 3.7 100 0.0 W 9 13 5 7 989.7 990.3 41.8
30/07:00am 3.6 0.9 3.6 100 0.0 WNW 7 9 4 5 990.3 990.9 40.0
30/06:30am 3.5 0.4 3.5 100 0.0 WSW 9 13 5 7 990.1 990.8 38.8
30/06:00am 3.3 0.1 3.3 100 0.0 W 9 11 5 6 989.8 990.5 37.6
30/05:30am 3.2 0.0 3.2 100 0.0 W 9 11 5 6 990.0 990.7 36.6
30/05:00am 3.1 0.5 3.1 100 0.0 WNW 6 7 3 4 990.0 990.7 36.0
30/04:30am 3.0 0.4 3.0 100 0.0 WSW 6 9 3 5 990.0 990.7 35.8
30/04:00am 2.6 -0.1 2.6 100 0.0 WNW 6 9 3 5 990.4 991.0 35.8
30/03:30am 2.3 -1.0 2.3 100 0.0 W 9 13 5 7 990.0 990.7 35.8
30/03:00am 2.2 -0.2 2.2 100 0.0 SW 4 7 2 4 990.5 991.1 35.8
30/02:30am 2.1 -1.3 2.1 100 0.0 S 9 11 5 6 990.7 991.4 35.8
30/02:00am 2.3 -0.5 2.3 100 0.0 NNW 6 9 3 5 990.6 991.2 35.8
30/01:30am 3.2 0.4 3.2 100 0.0 NNE 7 9 4 5 991.5 992.2 35.8
30/01:00am 3.6 0.9 3.6 100 0.0 ENE 7 11 4 6 991.8 992.5 35.8
30/12:30am 3.6 1.1 3.6 100 0.0 E 6 9 3 5 991.9 992.6 35.8
30/12:00am 3.8 1.1 3.8 100 0.0 NNE 7 11 4 6 991.8 992.5 35.8
 
Date/Time
EST
Temp
°C
App
Temp
°C
Dew
Point
°C
Rel
Hum
%
Delta-T
°C
Wind Press
QNH
hPa
Press
MSL
hPa
Rain since
9am
mm
Dir  Spd
km/h
Gust
km/h
Spd
kts
Gust
kts
29/11:30pm 3.8 1.1 3.8 100 0.0 NNE 7 11 4 6 991.7 992.4 35.8
29/11:00pm 3.6 0.5 3.6 100 0.0 NE 9 11 5 6 991.8 992.5 35.8
29/10:30pm 3.4 2.0 3.4 100 0.0 CALM 0 0 0 0 991.6 992.3 35.8
29/10:00pm 3.5 2.1 3.5 100 0.0 CALM 0 6 0 3 991.5 992.2 35.8
29/09:30pm 3.3 0.5 3.3 100 0.0 E 7 9 4 5 991.6 992.3 35.8
29/09:00pm 3.2 1.3 3.1 99 0.0 N 2 6 1 3 991.4 992.0 35.8
29/08:30pm 3.4 0.2 3.3 99 0.0 NNW 9 17 5 9 991.7 992.4 35.6
29/08:00pm 4.8 0.0 4.7 99 0.0 N 19 30 10 16 991.2 991.9 34.8
29/07:30pm 5.8 -0.1 5.8 100 0.0 NE 26 33 14 18 990.5 991.1 33.2
29/07:00pm 5.7 -1.0 5.7 100 0.0 ENE 30 41 16 22 989.7 990.3 33.0
29/06:30pm 5.6 -1.5 5.6 100 0.0 ENE 32 43 17 23 989.7 990.3 32.8
29/06:00pm 5.8 -4.3 5.8 100 0.0 ENE 48 69 26 37 989.8 990.5 31.8
29/05:30pm 6.0 -3.3 5.9 99 0.0 ENE 44 63 24 34 989.5 990.1 30.8
29/05:08pm 5.8 -3.3 5.7 99 0.0 ENE 43 61 23 33 989.5 990.1 30.0
29/05:00pm 5.7 -3.7 5.6 99 0.0 ENE 44 59 24 32 989.6 990.2 29.6
29/04:30pm 6.3 -2.0 6.2 99 0.0 ENE 39 69 21 37 989.6 990.2 28.6
29/04:24pm 6.2 -0.8 6.2 100 0.0 ENE 32 56 17 30 989.5 990.1 28.4
29/04:00pm 6.0 -1.0 6.0 100 0.0 NE 32 43 17 23 989.8 990.5 26.8
29/03:35pm 5.8 -3.0 5.7 99 0.0 NE 41 59 22 32 990.1 990.8 25.4
29/03:30pm 6.0 -2.7 5.9 99 0.0 NE 41 57 22 31 990.3 990.9 25.0
29/03:19pm 6.0 -1.0 6.0 100 0.0 NE 32 50 17 27 990.4 991.0 24.4
29/03:00pm 5.7 -2.3 5.7 100 0.0 NE 37 54 20 29 990.6 991.2 23.2
29/02:30pm 5.8 -2.6 5.8 100 0.0 NE 39 57 21 31 990.9 991.6 21.0
29/02:00pm 6.1 -1.8 6.0 99 0.0 NNE 37 57 20 31 991.2 991.9 19.0
29/01:40pm 6.8 0.7 6.7 99 0.0 NNE 28 57 15 31 991.5 992.2 17.0
29/01:30pm 6.4 1.4 6.4 100 0.0 NNE 22 32 12 17 991.6 992.3 16.0
29/01:10pm 7.0 1.0 7.0 100 0.0 NNE 28 52 15 28 991.6 992.3 13.6
29/01:00pm 7.4 3.0 7.4 100 0.0 NNE 20 28 11 15 991.5 992.2 12.4
29/12:40pm 7.6 1.0 7.6 100 0.0 NE 32 50 17 27 991.4 992.0 10.0
29/12:30pm 7.6 0.8 7.6 100 0.0 NE 33 43 18 23 991.5 992.2 9.4
29/12:11pm 7.6 0.8 7.6 100 0.0 NE 33 52 18 28 991.9 992.6 9.0
29/12:00pm 7.3 0.6 7.3 100 0.0 NNE 32 48 17 26 991.9 992.6 8.6
29/11:30am 7.5 -0.5 7.5 100 0.0 NE 39 57 21 31 992.5 993.2 7.0
29/11:00am 7.1 -0.2 7.1 100 0.0 NE 35 54 19 29 992.9 993.6 6.2
29/10:42am 7.2 0.3 7.2 100 0.0 NE 33 52 18 28 993.0 993.7 4.6
29/10:30am 7.1 -0.6 7.1 100 0.0 NE 37 54 20 29 992.9 993.6 3.8
29/10:04am 6.9 -1.6 6.9 100 0.0 NE 41 59 22 32 993.1 993.9 2.4
29/10:00am 6.8 -1.7 6.8 100 0.0 NE 41 52 22 28 993.4 994.1 2.4
29/09:39am 6.6 -0.8 6.6 100 0.0 NE 35 56 19 30 993.7 994.4 1.6
29/09:30am 6.5 -1.3 6.5 100 0.0 NE 37 52 20 28 993.9 994.7 1.0
29/09:00am 6.6 -2.0 6.6 100 0.0 NE 41 63 22 34 994.0 994.8 0.6
29/08:30am 6.5 -2.5 6.5 100 0.0 NE 43 63 23 34 994.1 994.9 0.6
29/08:02am 6.1 -1.8 6.1 100 0.0 NE 37 56 20 30 994.8 995.6 0.4
29/08:00am 6.0 -1.6 6.0 100 0.0 NE 35 52 19 28 994.8 995.6 0.4
29/07:30am 5.7 -1.9 5.7 100 0.0 NE 35 48 19 26 995.1 995.9 0.2
29/07:00am 5.4 -2.3 5.4 100 0.0 NE 35 50 19 27 995.3 996.1 0.0
29/06:50am 5.5 -3.3 5.5 100 0.0 NE 41 59 22 32 995.5 996.2 0.0
29/06:30am 5.5 -3.7 5.4 99 0.0 NE 43 59 23 32 995.3 996.1 0.0
29/06:00am 5.1 -3.1 5.0 99 0.0 NE 37 56 20 30 995.6 996.4 0.0
29/05:44am 4.9 -2.9 4.8 99 0.0 NE 35 54 19 29 995.7 996.5 0.0
29/05:30am 4.7 -3.5 4.6 99 0.0 NE 37 50 20 27 996.1 996.9 0.0
29/05:00am 4.7 -2.6 4.6 99 0.0 NE 32 43 17 23 996.7 997.5 0.0
29/04:30am 4.8 -1.7 4.7 99 0.0 NE 28 39 15 21 997.3 998.2 0.0
29/04:00am 4.8 -1.7 4.7 99 0.0 NE 28 39 15 21 997.8 998.6 0.0
29/03:30am 4.3 0.2 4.2 99 0.0 NE 15 22 8 12 998.8 999.7 0.0
29/03:00am 4.7 -0.7 4.6 99 0.0 NE 22 35 12 19 999.3 1000.2 0.0
29/02:30am 4.6 -1.9 4.5 99 0.0 NNE 28 43 15 23 999.8 1000.7 0.0
29/02:00am 4.2 -3.4 4.1 99 0.0 NNE 33 50 18 27 1000.1 1001.0 0.0
29/01:48am 4.0 -3.1 3.7 98 0.1 NNE 30 48 16 26 1000.3 1001.2 0.0
29/01:30am 3.9 -1.3 3.6 98 0.1 NNE 20 28 11 15 1001.0 1001.9 0.0
29/01:00am 4.1 -0.9 3.8 98 0.1 NNE 19 32 10 17 1001.7 1002.6 0.0
29/12:30am 4.2 -1.0 3.8 97 0.2 NNE 20 37 11 20 1002.2 1003.2 0.0
29/12:00am 3.8 -0.4 3.7 99 0.0 NNE 15 26 8 14 1002.4 1003.4 0.0
 
Date/Time
EST
Temp
°C
App
Temp
°C
Dew
Point
°C
Rel
Hum
%
Delta-T
°C
Wind Press
QNH
hPa
Press
MSL
hPa
Rain since
9am
mm
Dir  Spd
km/h
Gust
km/h
Spd
kts
Gust
kts
28/11:30pm 3.5 -0.4 3.4 99 0.0 NNE 13 24 7 13 1002.9 1003.9 0.0
28/11:00pm 3.3 -2.3 3.2 99 0.0 NNE 22 32 12 17 1002.9 1003.9 0.0
28/10:30pm 1.4 -2.9 0.8 96 0.2 ESE 13 17 7 9 1003.4 1004.4 0.0
28/10:00pm 1.8 -3.3 0.9 94 0.4 NE 17 22 9 12 1003.8 1004.8 0.0
28/09:30pm 2.0 -3.9 1.7 98 0.1 NE 22 26 12 14 1003.8 1004.8 0.0
28/09:00pm 2.7 -1.5 1.7 93 0.4 NE 13 20 7 11 1004.0 1005.0 0.0
28/08:30pm 3.7 -0.3 3.1 96 0.3 NNE 13 19 7 10 1004.7 1005.7 0.0
28/08:00pm 4.5 -0.1 3.6 94 0.4 N 17 30 9 16 1004.9 1005.9 0.0
28/07:30pm 5.0 0.5 4.4 96 0.3 N 17 28 9 15 1004.9 1005.9 0.0
28/07:00pm 5.4 2.2 5.0 97 0.2 N 11 17 6 9 1004.5 1005.6 0.0
28/06:30pm 5.6 2.7 4.7 94 0.4 N 9 15 5 8 1004.4 1005.5 0.0
28/06:00pm 5.8 2.9 4.8 93 0.5 NNE 9 15 5 8 1004.1 1005.1 0.0
28/05:30pm 6.4 3.1 4.6 88 0.8 N 11 19 6 10 1004.4 1005.5 0.0
28/05:00pm 6.8 3.1 4.3 84 1.2 N 13 20 7 11 1004.7 1005.7 0.0
28/04:30pm 7.5 3.6 3.2 74 1.9 N 13 22 7 12 1004.1 1005.1 0.0
28/04:00pm 8.9 3.8 4.1 72 2.3 NE 20 26 11 14 1004.0 1005.0 0.0
28/03:30pm 9.0 4.0 4.4 73 2.2 NE 20 32 11 17 1004.3 1005.3 0.0
28/03:00pm 9.6 5.1 4.0 68 2.6 NNE 17 28 9 15 1004.9 1005.9 0.0
28/02:30pm 9.7 4.7 3.4 65 2.9 NNE 19 32 10 17 1005.5 1006.6 0.0
28/02:00pm 9.8 5.0 2.4 60 3.4 N 17 26 9 14 1005.8 1006.8 0.0
28/01:30pm 10.0 4.2 -1.7 44 4.8 NNW 19 28 10 15 1006.3 1007.4 0.0
28/01:00pm 9.9 4.6 -0.9 47 4.6 NNW 17 28 9 15 1006.5 1007.6 0.0
28/12:30pm 9.8 5.0 0.2 51 4.1 N 15 28 8 15 1007.0 1008.1 0.0
28/12:00pm 9.2 4.4 0.4 54 3.8 NNW 15 22 8 12 1007.2 1008.3 0.0
28/11:30am 9.8 5.7 2.2 59 3.4 NW 13 24 7 13 1007.3 1008.4 0.0
28/11:00am 9.2 5.2 0.4 54 3.8 NNW 11 22 6 12 1007.5 1008.6 0.0
28/10:30am 9.3 4.8 -0.3 51 4.1 WNW 13 20 7 11 1007.7 1008.7 0.0
28/10:00am 8.4 3.8 -1.4 50 4.0 NW 13 19 7 10 1008.1 1009.2 0.0
28/09:30am 7.1 3.3 -0.8 57 3.2 W 9 17 5 9 1008.2 1009.3 0.0
28/09:00am 5.9 2.2 -0.2 65 2.5 W 9 13 5 7 1008.5 1009.7 0.0
28/08:30am 5.9 1.6 0.7 69 2.2 WNW 13 17 7 9 1008.5 1009.7 0.0
28/08:00am 4.8 1.6 2.8 87 0.9 WNW 9 13 5 7 1008.9 1010.0 0.0
28/07:30am 3.3 0.0 2.4 94 0.4 WNW 9 15 5 8 1008.9 1010.0 0.0
28/07:00am 2.1 -0.9 1.7 97 0.2 WNW 7 11 4 6 1008.8 1009.9 0.0
28/06:30am 0.0 -3.7 -0.1 99 0.0 SSE 9 13 5 7 1008.6 1009.8 0.0
28/06:00am 0.3 -3.4 0.2 99 0.0 NW 9 15 5 8 1008.3 1009.4 0.0
28/05:30am -0.5 -3.7 -0.6 99 0.0 NNE 6 9 3 5 1008.2 1009.3 0.0
28/05:00am 0.4 -3.2 0.3 99 0.0 W 9 11 5 6 1007.8 1008.9 0.0
28/04:30am 1.2 -3.5 1.1 99 0.0 W 15 19 8 10 1007.5 1008.6 0.0
28/04:00am 2.3 -2.9 2.2 99 0.0 W 19 24 10 13 1007.4 1008.5 0.0
28/03:30am 2.8 -2.0 2.7 99 0.0 W 17 22 9 12 1007.3 1008.4 0.0
28/03:00am 2.6 -0.7 2.5 99 0.0 NW 9 13 5 7 1007.2 1008.3 0.0
28/02:30am 2.4 -0.9 2.3 99 0.0 WNW 9 15 5 8 1007.2 1008.3 0.0
28/02:00am 3.1 -0.5 3.0 99 0.0 NW 11 19 6 10 1007.2 1008.3 0.0
28/01:30am 3.2 -0.8 3.1 99 0.0 NW 13 20 7 11 1007.4 1008.5 0.0
28/01:00am 2.9 -1.1 2.8 99 0.0 NW 13 20 7 11 1007.5 1008.6 0.0
28/12:30am 0.6 -2.6 0.5 99 0.0 NE 7 9 4 5 1007.7 1008.7 0.0
28/12:00am 0.7 -2.5 0.6 99 0.0 N 7 9 4 5 1007.7 1008.7 0.0
 
Date/Time
EST
Temp
°C
App
Temp
°C
Dew
Point
°C
Rel
Hum
%
Delta-T
°C
Wind Press
QNH
hPa
Press
MSL
hPa
Rain since
9am
mm
Dir  Spd
km/h
Gust
km/h
Spd
kts
Gust
kts
27/11:30pm 0.0 -3.3 -0.1 99 0.0 NE 7 11 4 6 1007.8 1008.9 0.0
27/11:00pm 2.1 -1.3 2.0 99 0.0 NNW 9 13 5 7 1007.8 1008.9 0.0
27/10:30pm 2.5 -2.0 2.4 99 0.0 W 15 20 8 11 1007.9 1009.0 0.0
27/10:00pm 2.8 -0.8 2.7 99 0.0 WNW 11 17 6 9 1007.7 1008.7 0.0
27/09:30pm 3.4 -0.9 3.3 99 0.0 WNW 15 20 8 11 1007.9 1009.0 0.0
27/09:00pm 3.2 -1.5 3.1 99 0.0 W 17 24 9 13 1007.7 1008.7 0.0
27/08:30pm 3.3 -1.4 3.2 99 0.0 W 17 22 9 12 1007.7 1008.7 0.0
27/08:00pm 3.7 -0.5 3.6 99 0.0 W 15 19 8 10 1007.7 1008.7 0.0
27/07:30pm 3.9 0.5 3.8 99 0.0 WNW 11 15 6 8 1007.5 1008.6 0.0
27/07:00pm 4.8 -0.2 4.7 99 0.0 WNW 20 30 11 16 1007.7 1008.7 0.0
27/06:30pm 5.3 0.2 4.1 92 0.5 WNW 20 28 11 15 1007.1 1008.2 0.0

Other Formats:

Comma delimited format used in spreadsheet applications
http://www.bom.gov.au/fwo/IDT60801/IDT60801.95959.axf

JavaScript Object Notation format (JSON) in row-major order
http://www.bom.gov.au/fwo/IDT60801/IDT60801.95959.json